sensor_id;sensor_type;location;lat;lon;timestamp;pressure;altitude;pressure_sealevel;temperature;humidity
55271;BME280;41132;47.162;9.470;2023-04-03T00:03:55;96783.69;;;7.72;100.00
55271;BME280;41132;47.162;9.470;2023-04-03T00:06:21;96792.03;;;7.66;100.00
55271;BME280;41132;47.162;9.470;2023-04-03T00:08:46;96783.19;;;7.58;100.00
55271;BME280;41132;47.162;9.470;2023-04-03T00:11:12;96785.50;;;7.51;100.00
55271;BME280;41132;47.162;9.470;2023-04-03T00:13:38;96786.59;;;7.48;100.00
55271;BME280;41132;47.162;9.470;2023-04-03T00:16:05;96791.06;;;7.67;100.00
55271;BME280;41132;47.162;9.470;2023-04-03T00:18:31;96777.16;;;7.57;100.00
55271;BME280;41132;47.162;9.470;2023-04-03T00:20:57;96786.25;;;7.63;100.00
55271;BME280;41132;47.162;9.470;2023-04-03T00:23:22;96784.91;;;7.68;100.00
55271;BME280;41132;47.162;9.470;2023-04-03T00:25:49;96785.19;;;7.65;100.00
55271;BME280;41132;47.162;9.470;2023-04-03T00:28:15;96793.69;;;7.67;100.00
55271;BME280;41132;47.162;9.470;2023-04-03T00:30:40;96793.16;;;7.73;100.00
55271;BME280;41132;47.162;9.470;2023-04-03T00:33:06;96789.00;;;7.40;100.00
55271;BME280;41132;47.162;9.470;2023-04-03T00:35:31;96784.69;;;7.29;100.00
55271;BME280;41132;47.162;9.470;2023-04-03T00:37:57;96785.97;;;7.35;100.00
55271;BME280;41132;47.162;9.470;2023-04-03T00:40:25;96770.75;;;7.19;100.00
55271;BME280;41132;47.162;9.470;2023-04-03T00:42:56;96781.28;;;7.29;100.00
55271;BME280;41132;47.162;9.470;2023-04-03T00:45:26;96785.25;;;7.12;100.00
55271;BME280;41132;47.162;9.470;2023-04-03T00:47:52;96785.66;;;7.07;100.00
55271;BME280;41132;47.162;9.470;2023-04-03T00:50:18;96785.25;;;7.12;100.00
55271;BME280;41132;47.162;9.470;2023-04-03T00:52:44;96779.13;;;6.81;100.00
55271;BME280;41132;47.162;9.470;2023-04-03T00:55:12;96781.84;;;7.11;100.00
55271;BME280;41132;47.162;9.470;2023-04-03T00:57:38;96767.38;;;6.86;100.00
55271;BME280;41132;47.162;9.470;2023-04-03T01:00:10;96784.88;;;6.96;100.00
55271;BME280;41132;47.162;9.470;2023-04-03T01:02:36;96785.06;;;7.04;100.00
55271;BME280;41132;47.162;9.470;2023-04-03T01:05:02;96773.94;;;7.02;100.00
55271;BME280;41132;47.162;9.470;2023-04-03T01:07:32;96784.13;;;7.05;100.00
55271;BME280;41132;47.162;9.470;2023-04-03T01:10:02;96780.22;;;6.78;100.00
55271;BME280;41132;47.162;9.470;2023-04-03T01:12:36;96783.19;;;6.74;100.00
55271;BME280;41132;47.162;9.470;2023-04-03T01:15:10;96792.00;;;6.94;100.00
55271;BME280;41132;47.162;9.470;2023-04-03T01:17:45;96793.91;;;6.92;100.00
55271;BME280;41132;47.162;9.470;2023-04-03T01:27:56;96795.53;;;6.72;100.00
55271;BME280;41132;47.162;9.470;2023-04-03T01:30:27;96795.16;;;6.76;100.00
55271;BME280;41132;47.162;9.470;2023-04-03T01:32:53;96791.84;;;6.74;100.00
55271;BME280;41132;47.162;9.470;2023-04-03T01:35:19;96803.34;;;6.72;100.00
55271;BME280;41132;47.162;9.470;2023-04-03T01:37:44;96804.94;;;6.52;100.00
55271;BME280;41132;47.162;9.470;2023-04-03T01:40:10;96806.47;;;6.65;100.00
55271;BME280;41132;47.162;9.470;2023-04-03T01:42:35;96803.03;;;6.65;100.00
55271;BME280;41132;47.162;9.470;2023-04-03T01:45:01;96808.19;;;6.76;100.00
55271;BME280;41132;47.162;9.470;2023-04-03T01:47:26;96803.75;;;6.56;100.00
55271;BME280;41132;47.162;9.470;2023-04-03T01:49:51;96811.50;;;6.46;100.00
55271;BME280;41132;47.162;9.470;2023-04-03T01:52:17;96812.50;;;6.34;100.00
55271;BME280;41132;47.162;9.470;2023-04-03T01:54:42;96813.75;;;6.39;100.00
55271;BME280;41132;47.162;9.470;2023-04-03T02:02:18;96811.28;;;6.38;100.00
55271;BME280;41132;47.162;9.470;2023-04-03T02:04:45;96813.38;;;6.55;100.00
55271;BME280;41132;47.162;9.470;2023-04-03T02:07:11;96814.75;;;6.16;100.00
55271;BME280;41132;47.162;9.470;2023-04-03T02:09:36;96818.78;;;6.09;100.00
55271;BME280;41132;47.162;9.470;2023-04-03T02:12:02;96815.56;;;6.27;100.00
55271;BME280;41132;47.162;9.470;2023-04-03T02:14:27;96821.06;;;6.13;100.00
55271;BME280;41132;47.162;9.470;2023-04-03T02:16:53;96810.69;;;6.34;100.00
55271;BME280;41132;47.162;9.470;2023-04-03T02:19:18;96828.97;;;6.12;100.00
55271;BME280;41132;47.162;9.470;2023-04-03T02:21:44;96826.38;;;6.00;100.00
55271;BME280;41132;47.162;9.470;2023-04-03T02:24:09;96831.34;;;6.15;100.00
55271;BME280;41132;47.162;9.470;2023-04-03T02:26:35;96831.34;;;6.03;100.00
55271;BME280;41132;47.162;9.470;2023-04-03T02:29:00;96826.34;;;5.89;100.00
55271;BME280;41132;47.162;9.470;2023-04-03T02:31:26;96830.16;;;5.96;100.00
55271;BME280;41132;47.162;9.470;2023-04-03T02:33:51;96841.03;;;5.90;100.00
55271;BME280;41132;47.162;9.470;2023-04-03T02:36:16;96837.00;;;5.86;100.00
55271;BME280;41132;47.162;9.470;2023-04-03T02:38:42;96842.94;;;5.77;100.00
55271;BME280;41132;47.162;9.470;2023-04-03T02:41:10;96833.69;;;5.61;100.00
55271;BME280;41132;47.162;9.470;2023-04-03T02:43:35;96843.97;;;5.63;100.00
55271;BME280;41132;47.162;9.470;2023-04-03T02:46:01;96844.06;;;5.50;100.00
55271;BME280;41132;47.162;9.470;2023-04-03T02:48:26;96847.78;;;5.70;100.00
55271;BME280;41132;47.162;9.470;2023-04-03T02:58:38;96851.69;;;5.87;100.00
55271;BME280;41132;47.162;9.470;2023-04-03T03:01:03;96867.75;;;5.58;100.00
55271;BME280;41132;47.162;9.470;2023-04-03T03:03:29;96847.75;;;5.59;100.00
55271;BME280;41132;47.162;9.470;2023-04-03T03:24:00;96865.28;;;5.21;100.00
55271;BME280;41132;47.162;9.470;2023-04-03T03:26:26;96874.13;;;5.43;100.00
55271;BME280;41132;47.162;9.470;2023-04-03T03:28:52;96869.16;;;5.51;100.00
55271;BME280;41132;47.162;9.470;2023-04-03T03:31:17;96868.94;;;5.54;100.00
55271;BME280;41132;47.162;9.470;2023-04-03T03:33:43;96871.38;;;5.44;100.00
55271;BME280;41132;47.162;9.470;2023-04-03T03:36:08;96875.75;;;5.44;100.00
55271;BME280;41132;47.162;9.470;2023-04-03T03:38:33;96872.91;;;5.47;100.00
55271;BME280;41132;47.162;9.470;2023-04-03T03:40:59;96876.06;;;5.28;100.00
55271;BME280;41132;47.162;9.470;2023-04-03T03:43:24;96867.16;;;5.19;100.00
55271;BME280;41132;47.162;9.470;2023-04-03T03:45:51;96880.50;;;5.39;100.00
55271;BME280;41132;47.162;9.470;2023-04-03T03:48:17;96880.75;;;5.12;100.00
55271;BME280;41132;47.162;9.470;2023-04-03T03:50:43;96884.44;;;5.56;100.00
55271;BME280;41132;47.162;9.470;2023-04-03T03:53:08;96895.06;;;5.17;100.00
55271;BME280;41132;47.162;9.470;2023-04-03T04:05:54;96896.66;;;5.31;100.00
55271;BME280;41132;47.162;9.470;2023-04-03T04:10:55;96896.31;;;5.25;100.00
55271;BME280;41132;47.162;9.470;2023-04-03T04:13:20;96901.53;;;5.00;100.00
55271;BME280;41132;47.162;9.470;2023-04-03T04:15:46;96904.28;;;5.10;100.00
55271;BME280;41132;47.162;9.470;2023-04-03T04:18:11;96891.34;;;4.97;100.00
55271;BME280;41132;47.162;9.470;2023-04-03T04:20:37;96899.19;;;4.85;100.00
55271;BME280;41132;47.162;9.470;2023-04-03T04:23:02;96890.13;;;4.66;100.00
55271;BME280;41132;47.162;9.470;2023-04-03T04:25:27;96899.19;;;4.85;100.00
55271;BME280;41132;47.162;9.470;2023-04-03T04:30:28;96896.25;;;4.65;100.00
55271;BME280;41132;47.162;9.470;2023-04-03T04:43:14;96898.34;;;4.60;100.00
55271;BME280;41132;47.162;9.470;2023-04-03T05:06:17;96895.47;;;4.02;100.00
55271;BME280;41132;47.162;9.470;2023-04-03T05:14:20;96912.38;;;4.21;100.00
55271;BME280;41132;47.162;9.470;2023-04-03T05:22:09;96911.81;;;4.41;100.00
55271;BME280;41132;47.162;9.470;2023-04-03T05:27:10;96914.75;;;4.36;100.00
55271;BME280;41132;47.162;9.470;2023-04-03T05:47:36;96934.66;;;4.36;100.00
55271;BME280;41132;47.162;9.470;2023-04-03T05:50:03;96932.63;;;4.15;100.00
55271;BME280;41132;47.162;9.470;2023-04-03T05:52:33;96929.88;;;4.43;100.00
55271;BME280;41132;47.162;9.470;2023-04-03T05:55:00;96936.19;;;4.64;100.00
55271;BME280;41132;47.162;9.470;2023-04-03T06:00:01;96941.97;;;4.44;100.00
55271;BME280;41132;47.162;9.470;2023-04-03T06:02:27;96927.81;;;4.35;100.00
55271;BME280;41132;47.162;9.470;2023-04-03T06:04:53;96934.66;;;4.49;100.00
55271;BME280;41132;47.162;9.470;2023-04-03T06:07:21;96932.19;;;4.34;100.00
55271;BME280;41132;47.162;9.470;2023-04-03T06:22:42;96956.03;;;4.03;100.00
55271;BME280;41132;47.162;9.470;2023-04-03T06:25:08;96948.63;;;4.35;100.00
55271;BME280;41132;47.162;9.470;2023-04-03T06:27:35;96944.38;;;4.21;100.00
55271;BME280;41132;47.162;9.470;2023-04-03T06:30:00;96946.25;;;4.06;100.00
55271;BME280;41132;47.162;9.470;2023-04-03T06:32:25;96955.19;;;4.02;100.00
55271;BME280;41132;47.162;9.470;2023-04-03T06:34:51;96958.63;;;4.03;100.00
55271;BME280;41132;47.162;9.470;2023-04-03T06:37:21;96958.63;;;3.77;100.00
55271;BME280;41132;47.162;9.470;2023-04-03T06:39:47;96959.88;;;3.84;100.00
55271;BME280;41132;47.162;9.470;2023-04-03T06:42:12;96958.81;;;3.87;100.00
55271;BME280;41132;47.162;9.470;2023-04-03T06:44:38;96953.81;;;3.84;100.00
55271;BME280;41132;47.162;9.470;2023-04-03T06:47:04;96956.34;;;3.98;100.00
55271;BME280;41132;47.162;9.470;2023-04-03T08:01:23;96996.50;;;4.56;100.00
55271;BME280;41132;47.162;9.470;2023-04-03T08:08:59;96985.91;;;4.47;100.00
55271;BME280;41132;47.162;9.470;2023-04-03T08:11:24;96996.41;;;4.71;100.00
55271;BME280;41132;47.162;9.470;2023-04-03T08:13:51;96992.81;;;4.97;100.00
55271;BME280;41132;47.162;9.470;2023-04-03T09:28:11;97007.63;;;5.08;100.00
55271;BME280;41132;47.162;9.470;2023-04-03T09:30:37;97007.63;;;5.08;100.00
55271;BME280;41132;47.162;9.470;2023-04-03T09:33:04;97010.16;;;4.97;100.00
55271;BME280;41132;47.162;9.470;2023-04-03T09:40:40;97017.38;;;5.17;100.00
55271;BME280;41132;47.162;9.470;2023-04-03T09:53:38;97010.91;;;5.71;100.00
55271;BME280;41132;47.162;9.470;2023-04-03T09:56:19;97008.53;;;5.44;100.00
55271;BME280;41132;47.162;9.470;2023-04-03T09:58:49;97001.41;;;5.35;100.00
55271;BME280;41132;47.162;9.470;2023-04-03T10:01:39;97009.75;;;5.51;100.00
55271;BME280;41132;47.162;9.470;2023-04-03T10:04:09;97007.69;;;5.68;100.00
55271;BME280;41132;47.162;9.470;2023-04-03T10:06:41;97010.22;;;5.56;100.00
55271;BME280;41132;47.162;9.470;2023-04-03T10:09:26;97006.72;;;5.57;97.91
55271;BME280;41132;47.162;9.470;2023-04-03T10:12:01;97006.75;;;5.44;98.93
55271;BME280;41132;47.162;9.470;2023-04-03T10:14:29;97003.03;;;5.60;99.54
55271;BME280;41132;47.162;9.470;2023-04-03T10:17:02;97010.66;;;5.39;97.99
55271;BME280;41132;47.162;9.470;2023-04-03T10:22:24;97006.22;;;5.52;96.91
55271;BME280;41132;47.162;9.470;2023-04-03T10:27:55;97003.41;;;5.67;99.60
55271;BME280;41132;47.162;9.470;2023-04-03T10:33:27;97009.16;;;5.48;99.95
55271;BME280;41132;47.162;9.470;2023-04-03T10:41:21;97009.94;;;5.72;99.80
55271;BME280;41132;47.162;9.470;2023-04-03T10:44:03;96998.06;;;5.57;97.19
55271;BME280;41132;47.162;9.470;2023-04-03T10:47:01;96999.88;;;5.68;96.76
55271;BME280;41132;47.162;9.470;2023-04-03T10:49:43;97003.09;;;5.71;94.61
55271;BME280;41132;47.162;9.470;2023-04-03T10:57:42;96992.66;;;5.95;91.81
55271;BME280;41132;47.162;9.470;2023-04-03T11:00:20;96999.00;;;5.91;89.99
55271;BME280;41132;47.162;9.470;2023-04-03T11:05:31;96999.91;;;5.79;95.97
55271;BME280;41132;47.162;9.470;2023-04-03T11:08:02;96995.03;;;5.98;96.45
55271;BME280;41132;47.162;9.470;2023-04-03T11:10:41;96989.94;;;6.08;93.14
55271;BME280;41132;47.162;9.470;2023-04-03T11:15:57;96987.97;;;5.88;97.70
55271;BME280;41132;47.162;9.470;2023-04-03T11:18:46;96986.16;;;6.01;91.99
55271;BME280;41132;47.162;9.470;2023-04-03T11:24:03;96975.50;;;6.15;93.06
55271;BME280;41132;47.162;9.470;2023-04-03T11:26:35;96982.16;;;6.19;92.36
55271;BME280;41132;47.162;9.470;2023-04-03T11:29:07;96980.34;;;6.09;93.53
55271;BME280;41132;47.162;9.470;2023-04-03T11:34:25;96979.03;;;6.03;95.55
55271;BME280;41132;47.162;9.470;2023-04-03T11:36:56;96970.63;;;5.99;94.26
55271;BME280;41132;47.162;9.470;2023-04-03T11:42:17;96963.06;;;6.19;92.00
55271;BME280;41132;47.162;9.470;2023-04-03T11:44:48;96960.09;;;6.12;89.25
55271;BME280;41132;47.162;9.470;2023-04-03T11:47:46;96964.16;;;6.39;93.47
55271;BME280;41132;47.162;9.470;2023-04-03T13:24:11;96902.22;;;6.86;81.72
55271;BME280;41132;47.162;9.470;2023-04-03T13:26:38;96905.00;;;7.05;85.04
55271;BME280;41132;47.162;9.470;2023-04-03T13:29:07;96909.56;;;6.81;81.55
55271;BME280;41132;47.162;9.470;2023-04-03T13:31:44;96901.53;;;6.84;81.20
55271;BME280;41132;47.162;9.470;2023-04-03T13:36:38;96898.47;;;7.11;80.19
55271;BME280;41132;47.162;9.470;2023-04-03T13:39:20;96890.88;;;7.08;77.56
55271;BME280;41132;47.162;9.470;2023-04-03T13:41:52;96892.53;;;7.09;79.17
55271;BME280;41132;47.162;9.470;2023-04-03T13:46:57;96880.56;;;7.06;76.40
55271;BME280;41132;47.162;9.470;2023-04-03T13:49:31;96883.56;;;7.02;76.00
55271;BME280;41132;47.162;9.470;2023-04-03T13:51:58;96881.25;;;7.08;78.04
55271;BME280;41132;47.162;9.470;2023-04-03T13:54:29;96889.16;;;6.97;77.86
55271;BME280;41132;47.162;9.470;2023-04-03T13:56:57;96884.38;;;7.02;79.97
55271;BME280;41132;47.162;9.470;2023-04-03T13:59:34;96881.41;;;7.07;78.07
55271;BME280;41132;47.162;9.470;2023-04-03T14:04:43;96874.19;;;7.31;78.96
55271;BME280;41132;47.162;9.470;2023-04-03T14:07:10;96869.00;;;7.20;73.27
55271;BME280;41132;47.162;9.470;2023-04-03T14:09:36;96869.56;;;7.24;77.05
55271;BME280;41132;47.162;9.470;2023-04-03T14:12:07;96873.63;;;7.17;76.17
55271;BME280;41132;47.162;9.470;2023-04-03T14:14:35;96877.25;;;7.04;75.92
55271;BME280;41132;47.162;9.470;2023-04-03T14:17:03;96874.06;;;7.01;76.17
55271;BME280;41132;47.162;9.470;2023-04-03T14:19:36;96863.66;;;6.89;72.16
55271;BME280;41132;47.162;9.470;2023-04-03T14:22:13;96859.03;;;6.93;77.97
55271;BME280;41132;47.162;9.470;2023-04-03T14:24:38;96864.97;;;6.95;74.27
55271;BME280;41132;47.162;9.470;2023-04-03T14:27:13;96852.41;;;6.89;76.95
55271;BME280;41132;47.162;9.470;2023-04-03T14:29:41;96860.50;;;6.75;77.74
55271;BME280;41132;47.162;9.470;2023-04-03T14:32:06;96856.09;;;6.86;73.63
55271;BME280;41132;47.162;9.470;2023-04-03T14:34:31;96859.19;;;6.80;75.52
55271;BME280;41132;47.162;9.470;2023-04-03T14:36:57;96862.94;;;6.87;79.54
55271;BME280;41132;47.162;9.470;2023-04-03T14:39:23;96856.09;;;6.86;77.31
55271;BME280;41132;47.162;9.470;2023-04-03T14:41:48;96847.63;;;6.62;74.82
55271;BME280;41132;47.162;9.470;2023-04-03T14:44:14;96845.34;;;6.68;73.38
55271;BME280;41132;47.162;9.470;2023-04-03T14:46:43;96848.78;;;6.69;75.38
55271;BME280;41132;47.162;9.470;2023-04-03T14:49:19;96843.00;;;6.65;73.66
55271;BME280;41132;47.162;9.470;2023-04-03T14:51:46;96851.41;;;6.58;75.36
55271;BME280;41132;47.162;9.470;2023-04-03T14:54:18;96847.03;;;6.58;75.93
55271;BME280;41132;47.162;9.470;2023-04-03T14:56:46;96842.63;;;6.70;77.79
55271;BME280;41132;47.162;9.470;2023-04-03T14:59:13;96837.91;;;6.53;74.82
55271;BME280;41132;47.162;9.470;2023-04-03T15:01:39;96840.22;;;6.23;75.41
55271;BME280;41132;47.162;9.470;2023-04-03T15:04:14;96847.91;;;6.36;76.96
55271;BME280;41132;47.162;9.470;2023-04-03T15:06:40;96843.38;;;6.50;76.08
55271;BME280;41132;47.162;9.470;2023-04-03T15:09:26;96848.25;;;6.54;72.29
55271;BME280;41132;47.162;9.470;2023-04-03T15:11:53;96853.28;;;6.67;79.08
55271;BME280;41132;47.162;9.470;2023-04-03T15:14:21;96857.56;;;6.68;79.61
55271;BME280;41132;47.162;9.470;2023-04-03T15:16:48;96851.41;;;6.58;76.69
55271;BME280;41132;47.162;9.470;2023-04-03T15:19:14;96853.44;;;6.54;77.62
55271;BME280;41132;47.162;9.470;2023-04-03T15:21:40;96859.41;;;6.34;76.10
55271;BME280;41132;47.162;9.470;2023-04-03T15:24:05;96846.00;;;6.38;78.01
55271;BME280;41132;47.162;9.470;2023-04-03T15:26:31;96861.16;;;6.33;76.79
55271;BME280;41132;47.162;9.470;2023-04-03T15:28:57;96857.50;;;6.36;74.12
55271;BME280;41132;47.162;9.470;2023-04-03T15:31:22;96854.19;;;6.45;77.24
55271;BME280;41132;47.162;9.470;2023-04-03T15:33:48;96865.66;;;6.31;76.35
55271;BME280;41132;47.162;9.470;2023-04-03T15:36:13;96867.59;;;6.29;76.02
55271;BME280;41132;47.162;9.470;2023-04-03T15:38:39;96858.00;;;6.30;76.62
55271;BME280;41132;47.162;9.470;2023-04-03T15:41:04;96854.31;;;6.21;74.61
55271;BME280;41132;47.162;9.470;2023-04-03T15:43:30;96860.59;;;6.18;73.21
55271;BME280;41132;47.162;9.470;2023-04-03T15:45:57;96867.09;;;6.24;73.33
55271;BME280;41132;47.162;9.470;2023-04-03T15:48:23;96866.88;;;6.16;73.73
55271;BME280;41132;47.162;9.470;2023-04-03T15:50:49;96868.19;;;6.10;74.69
55271;BME280;41132;47.162;9.470;2023-04-03T15:53:15;96855.41;;;6.18;72.27
55271;BME280;41132;47.162;9.470;2023-04-03T15:55:40;96861.44;;;6.19;71.55
55271;BME280;41132;47.162;9.470;2023-04-03T15:58:06;96866.03;;;6.15;73.61
55271;BME280;41132;47.162;9.470;2023-04-03T16:00:32;96852.28;;;5.91;72.58
55271;BME280;41132;47.162;9.470;2023-04-03T16:03:01;96860.81;;;6.04;72.01
55271;BME280;41132;47.162;9.470;2023-04-03T16:05:29;96865.00;;;6.18;74.18
55271;BME280;41132;47.162;9.470;2023-04-03T16:07:55;96860.72;;;6.17;72.33
55271;BME280;41132;47.162;9.470;2023-04-03T16:10:21;96866.28;;;6.23;71.30
55271;BME280;41132;47.162;9.470;2023-04-03T16:12:47;96860.00;;;6.15;72.49
55271;BME280;41132;47.162;9.470;2023-04-03T16:15:12;96866.28;;;6.23;70.69
55271;BME280;41132;47.162;9.470;2023-04-03T16:17:39;96868.28;;;6.20;72.14
55271;BME280;41132;47.162;9.470;2023-04-03T16:20:07;96858.81;;;6.19;73.01
55271;BME280;41132;47.162;9.470;2023-04-03T16:22:33;96868.16;;;6.33;70.91
55271;BME280;41132;47.162;9.470;2023-04-03T16:24:59;96869.50;;;6.04;72.04
55271;BME280;41132;47.162;9.470;2023-04-03T16:27:25;96870.22;;;5.95;72.01
55271;BME280;41132;47.162;9.470;2023-04-03T16:29:54;96861.31;;;6.09;72.99
55271;BME280;41132;47.162;9.470;2023-04-03T16:32:20;96872.56;;;6.10;70.30
55271;BME280;41132;47.162;9.470;2023-04-03T16:34:45;96873.84;;;6.04;72.36
55271;BME280;41132;47.162;9.470;2023-04-03T16:37:11;96869.97;;;5.98;71.78
55271;BME280;41132;47.162;9.470;2023-04-03T16:39:36;96860.97;;;6.02;71.58
55271;BME280;41132;47.162;9.470;2023-04-03T16:42:02;96860.94;;;5.91;71.54
55271;BME280;41132;47.162;9.470;2023-04-03T16:44:27;96858.44;;;5.90;69.93
55271;BME280;41132;47.162;9.470;2023-04-03T16:46:53;96856.66;;;5.90;72.01
55271;BME280;41132;47.162;9.470;2023-04-03T16:49:18;96859.03;;;5.82;74.35
55271;BME280;41132;47.162;9.470;2023-04-03T16:51:44;96856.16;;;5.74;72.79
55271;BME280;41132;47.162;9.470;2023-04-03T16:54:10;96858.06;;;5.72;73.25
55271;BME280;41132;47.162;9.470;2023-04-03T16:56:37;96870.59;;;5.67;72.28
55271;BME280;41132;47.162;9.470;2023-04-03T16:59:03;96862.34;;;5.73;74.33
55271;BME280;41132;47.162;9.470;2023-04-03T17:01:28;96869.78;;;5.66;74.07
55271;BME280;41132;47.162;9.470;2023-04-03T17:03:54;96863.00;;;5.52;75.16
55271;BME280;41132;47.162;9.470;2023-04-03T17:06:20;96859.34;;;5.55;76.51
55271;BME280;41132;47.162;9.470;2023-04-03T17:08:49;96868.94;;;5.54;76.31
55271;BME280;41132;47.162;9.470;2023-04-03T17:11:15;96868.22;;;5.52;75.75
55271;BME280;41132;47.162;9.470;2023-04-03T17:13:41;96884.78;;;5.51;75.51
55271;BME280;41132;47.162;9.470;2023-04-03T17:16:09;96877.94;;;5.61;76.68
55271;BME280;41132;47.162;9.470;2023-04-03T17:18:36;96881.59;;;5.48;75.18
55271;BME280;41132;47.162;9.470;2023-04-03T17:21:03;96880.72;;;5.47;73.15
55271;BME280;41132;47.162;9.470;2023-04-03T17:23:28;96870.56;;;5.44;75.28
55271;BME280;41132;47.162;9.470;2023-04-03T17:25:55;96884.41;;;5.44;74.36
55271;BME280;41132;47.162;9.470;2023-04-03T17:28:23;96867.06;;;5.21;74.31
55271;BME280;41132;47.162;9.470;2023-04-03T17:30:56;96877.28;;;5.35;73.57
55271;BME280;41132;47.162;9.470;2023-04-03T17:33:22;96884.53;;;5.43;73.29
55271;BME280;41132;47.162;9.470;2023-04-03T17:35:47;96867.44;;;5.28;71.86
55271;BME280;41132;47.162;9.470;2023-04-03T17:38:13;96883.56;;;5.44;73.85
55271;BME280;41132;47.162;9.470;2023-04-03T17:40:38;96884.28;;;5.46;73.56
55271;BME280;41132;47.162;9.470;2023-04-03T17:43:05;96882.50;;;5.47;70.21
55271;BME280;41132;47.162;9.470;2023-04-03T17:45:31;96879.53;;;5.40;72.50
55271;BME280;41132;47.162;9.470;2023-04-03T17:47:56;96881.69;;;5.46;74.75
55271;BME280;41132;47.162;9.470;2023-04-03T17:50:21;96889.25;;;5.49;73.58
55271;BME280;41132;47.162;9.470;2023-04-03T17:52:47;96879.97;;;5.22;72.51
55271;BME280;41132;47.162;9.470;2023-04-03T17:55:13;96885.66;;;5.28;70.56
55271;BME280;41132;47.162;9.470;2023-04-03T17:57:39;96887.44;;;5.27;73.15
55271;BME280;41132;47.162;9.470;2023-04-03T18:00:07;96890.72;;;5.18;73.69
55271;BME280;41132;47.162;9.470;2023-04-03T18:02:33;96898.41;;;5.19;72.51
55271;BME280;41132;47.162;9.470;2023-04-03T18:04:58;96896.97;;;5.15;73.58
55271;BME280;41132;47.162;9.470;2023-04-03T18:07:24;96905.28;;;5.20;74.36
55271;BME280;41132;47.162;9.470;2023-04-03T18:09:51;96893.72;;;5.36;72.49
55271;BME280;41132;47.162;9.470;2023-04-03T18:12:19;96894.56;;;5.36;70.68
55271;BME280;41132;47.162;9.470;2023-04-03T18:14:45;96892.22;;;5.44;71.05
55271;BME280;41132;47.162;9.470;2023-04-03T18:17:11;96898.78;;;5.26;73.77
55271;BME280;41132;47.162;9.470;2023-04-03T18:19:36;96894.56;;;5.36;72.31
55271;BME280;41132;47.162;9.470;2023-04-03T18:22:08;96897.31;;;5.46;72.61
55271;BME280;41132;47.162;9.470;2023-04-03T18:24:36;96899.97;;;5.33;71.45
55271;BME280;41132;47.162;9.470;2023-04-03T18:27:12;96880.34;;;5.40;69.45
55271;BME280;41132;47.162;9.470;2023-04-03T18:29:40;96886.63;;;5.38;68.84
55271;BME280;41132;47.162;9.470;2023-04-03T18:32:06;96894.94;;;5.43;68.87
55271;BME280;41132;47.162;9.470;2023-04-03T18:34:35;96890.72;;;5.18;73.49
55271;BME280;41132;47.162;9.470;2023-04-03T18:37:00;96912.06;;;5.34;70.31
55271;BME280;41132;47.162;9.470;2023-04-03T18:39:27;96914.53;;;5.25;71.48
55271;BME280;41132;47.162;9.470;2023-04-03T18:41:53;96914.72;;;5.21;71.69
55271;BME280;41132;47.162;9.470;2023-04-03T18:44:20;96921.19;;;5.05;71.72
55271;BME280;41132;47.162;9.470;2023-04-03T18:46:47;96916.69;;;5.07;72.75
55271;BME280;41132;47.162;9.470;2023-04-03T18:49:13;96915.75;;;5.08;73.35
55271;BME280;41132;47.162;9.470;2023-04-03T18:51:39;96913.72;;;5.00;70.19
55271;BME280;41132;47.162;9.470;2023-04-03T18:54:06;96916.84;;;4.92;70.99
55271;BME280;41132;47.162;9.470;2023-04-03T18:56:34;96900.25;;;4.82;71.85
55271;BME280;41132;47.162;9.470;2023-04-03T18:58:59;96916.47;;;5.10;69.22
55271;BME280;41132;47.162;9.470;2023-04-03T19:01:27;96919.69;;;5.13;70.99
55271;BME280;41132;47.162;9.470;2023-04-03T19:03:52;96923.00;;;4.91;71.92
55271;BME280;41132;47.162;9.470;2023-04-03T19:06:18;96924.31;;;4.97;69.42
55271;BME280;41132;47.162;9.470;2023-04-03T19:08:43;96923.31;;;4.87;70.96
55271;BME280;41132;47.162;9.470;2023-04-03T19:11:08;96903.50;;;4.73;71.26
55271;BME280;41132;47.162;9.470;2023-04-03T19:13:35;96918.13;;;4.87;69.33
55271;BME280;41132;47.162;9.470;2023-04-03T19:16:02;96908.66;;;4.86;72.28
55271;BME280;41132;47.162;9.470;2023-04-03T19:18:28;96915.84;;;4.82;71.75
55271;BME280;41132;47.162;9.470;2023-04-03T19:20:55;96918.31;;;4.84;72.52
55271;BME280;41132;47.162;9.470;2023-04-03T19:23:21;96911.09;;;4.76;70.44
55271;BME280;41132;47.162;9.470;2023-04-03T19:25:56;96915.22;;;4.78;71.98
55271;BME280;41132;47.162;9.470;2023-04-03T19:28:21;96914.56;;;4.88;72.80
55271;BME280;41132;47.162;9.470;2023-04-03T19:30:47;96904.06;;;4.89;71.72
55271;BME280;41132;47.162;9.470;2023-04-03T19:33:12;96916.34;;;5.11;73.21
55271;BME280;41132;47.162;9.470;2023-04-03T19:35:39;96907.94;;;5.08;73.62
55271;BME280;41132;47.162;9.470;2023-04-03T19:38:05;96910.16;;;5.01;72.83
55271;BME280;41132;47.162;9.470;2023-04-03T19:40:31;96910.31;;;4.87;71.68
55271;BME280;41132;47.162;9.470;2023-04-03T19:42:57;96898.47;;;4.82;72.19
55271;BME280;41132;47.162;9.470;2023-04-03T19:45:23;96892.78;;;4.77;71.15
55271;BME280;41132;47.162;9.470;2023-04-03T19:47:50;96892.25;;;4.72;72.22
55271;BME280;41132;47.162;9.470;2023-04-03T19:50:16;96880.88;;;4.62;72.60
55271;BME280;41132;47.162;9.470;2023-04-03T19:52:42;96897.53;;;4.59;72.54
55271;BME280;41132;47.162;9.470;2023-04-03T19:55:08;96900.63;;;4.52;73.09
55271;BME280;41132;47.162;9.470;2023-04-03T19:57:33;96890.69;;;4.46;72.53
55271;BME280;41132;47.162;9.470;2023-04-03T19:59:59;96904.69;;;4.56;72.71
55271;BME280;41132;47.162;9.470;2023-04-03T20:02:24;96913.63;;;4.52;72.70
55271;BME280;41132;47.162;9.470;2023-04-03T20:04:49;96903.53;;;4.60;72.86
55271;BME280;41132;47.162;9.470;2023-04-03T20:07:15;96889.72;;;4.59;74.54
55271;BME280;41132;47.162;9.470;2023-04-03T20:09:40;96898.84;;;4.65;74.89
55271;BME280;41132;47.162;9.470;2023-04-03T20:12:06;96900.44;;;4.79;75.50
55271;BME280;41132;47.162;9.470;2023-04-03T20:14:35;96908.00;;;4.71;73.56
55271;BME280;41132;47.162;9.470;2023-04-03T20:17:01;96907.38;;;4.91;72.01
55271;BME280;41132;47.162;9.470;2023-04-03T20:19:27;96891.72;;;4.80;71.67
55271;BME280;41132;47.162;9.470;2023-04-03T20:21:52;96891.09;;;4.76;73.35
55271;BME280;41132;47.162;9.470;2023-04-03T20:24:18;96905.22;;;4.85;75.38